sensor_id;sensor_type;location;lat;lon;timestamp;temperature;humidity
2763;DHT22;1389;51.490;7.338;2023-02-21T00:01:00;9.10;95.50
2763;DHT22;1389;51.490;7.338;2023-02-21T00:03:45;9.10;95.60
2763;DHT22;1389;51.490;7.338;2023-02-21T00:06:30;9.00;95.40
2763;DHT22;1389;51.490;7.338;2023-02-21T00:09:14;9.10;95.80
2763;DHT22;1389;51.490;7.338;2023-02-21T00:11:59;9.00;95.70
2763;DHT22;1389;51.490;7.338;2023-02-21T00:14:44;9.00;96.00
2763;DHT22;1389;51.490;7.338;2023-02-21T00:17:28;9.10;95.90
2763;DHT22;1389;51.490;7.338;2023-02-21T00:20:13;9.10;95.70
2763;DHT22;1389;51.490;7.338;2023-02-21T00:22:58;9.10;95.80
2763;DHT22;1389;51.490;7.338;2023-02-21T00:25:43;9.10;95.50
2763;DHT22;1389;51.490;7.338;2023-02-21T00:28:28;9.10;95.80
2763;DHT22;1389;51.490;7.338;2023-02-21T00:31:12;9.10;95.60
2763;DHT22;1389;51.490;7.338;2023-02-21T00:34:00;9.00;95.90
2763;DHT22;1389;51.490;7.338;2023-02-21T00:36:45;9.00;95.90
2763;DHT22;1389;51.490;7.338;2023-02-21T00:39:30;9.00;96.00
2763;DHT22;1389;51.490;7.338;2023-02-21T00:42:15;9.00;96.00
2763;DHT22;1389;51.490;7.338;2023-02-21T00:44:59;9.00;96.10
2763;DHT22;1389;51.490;7.338;2023-02-21T00:47:44;9.00;96.00
2763;DHT22;1389;51.490;7.338;2023-02-21T00:50:29;9.00;95.90
2763;DHT22;1389;51.490;7.338;2023-02-21T00:53:14;9.00;95.90
2763;DHT22;1389;51.490;7.338;2023-02-21T00:55:58;9.00;95.90
2763;DHT22;1389;51.490;7.338;2023-02-21T00:58:43;8.90;96.00
2763;DHT22;1389;51.490;7.338;2023-02-21T01:01:28;8.90;96.30
2763;DHT22;1389;51.490;7.338;2023-02-21T01:04:12;8.90;96.40
2763;DHT22;1389;51.490;7.338;2023-02-21T01:06:57;8.90;96.70
2763;DHT22;1389;51.490;7.338;2023-02-21T01:09:42;8.90;96.60
2763;DHT22;1389;51.490;7.338;2023-02-21T01:12:26;8.90;96.70
2763;DHT22;1389;51.490;7.338;2023-02-21T01:15:11;9.00;96.60
2763;DHT22;1389;51.490;7.338;2023-02-21T01:17:56;9.00;96.50
2763;DHT22;1389;51.490;7.338;2023-02-21T01:20:40;8.90;96.50
2763;DHT22;1389;51.490;7.338;2023-02-21T01:23:25;8.90;96.60
2763;DHT22;1389;51.490;7.338;2023-02-21T01:26:10;8.90;96.60
2763;DHT22;1389;51.490;7.338;2023-02-21T01:28:54;8.90;96.60
2763;DHT22;1389;51.490;7.338;2023-02-21T01:31:39;8.90;96.80
2763;DHT22;1389;51.490;7.338;2023-02-21T01:34:24;8.90;96.80
2763;DHT22;1389;51.490;7.338;2023-02-21T01:37:08;8.90;96.90
2763;DHT22;1389;51.490;7.338;2023-02-21T01:39:53;8.90;96.90
2763;DHT22;1389;51.490;7.338;2023-02-21T01:42:38;8.90;96.90
2763;DHT22;1389;51.490;7.338;2023-02-21T01:48:15;8.90;97.10
2763;DHT22;1389;51.490;7.338;2023-02-21T01:51:02;8.90;97.10
2763;DHT22;1389;51.490;7.338;2023-02-21T01:53:48;8.90;97.10
2763;DHT22;1389;51.490;7.338;2023-02-21T01:56:33;8.90;96.80
2763;DHT22;1389;51.490;7.338;2023-02-21T01:59:18;8.90;96.90
2763;DHT22;1389;51.490;7.338;2023-02-21T02:02:28;8.80;96.90
2763;DHT22;1389;51.490;7.338;2023-02-21T02:05:15;8.90;97.20
2763;DHT22;1389;51.490;7.338;2023-02-21T02:07:59;8.80;97.10
2763;DHT22;1389;51.490;7.338;2023-02-21T02:10:45;8.80;97.00
2763;DHT22;1389;51.490;7.338;2023-02-21T02:17:27;8.80;97.20
2763;DHT22;1389;51.490;7.338;2023-02-21T02:20:08;8.80;97.30
2763;DHT22;1389;51.490;7.338;2023-02-21T02:23:04;8.80;97.30
2763;DHT22;1389;51.490;7.338;2023-02-21T02:40:10;8.80;97.90
2763;DHT22;1389;51.490;7.338;2023-02-21T02:42:48;8.80;97.90
2763;DHT22;1389;51.490;7.338;2023-02-21T02:45:27;8.80;98.00
2763;DHT22;1389;51.490;7.338;2023-02-21T02:48:01;8.80;98.10
2763;DHT22;1389;51.490;7.338;2023-02-21T02:50:28;8.80;98.10
2763;DHT22;1389;51.490;7.338;2023-02-21T02:52:58;8.80;98.10
2763;DHT22;1389;51.490;7.338;2023-02-21T02:55:52;8.80;98.00
2763;DHT22;1389;51.490;7.338;2023-02-21T02:58:20;8.90;97.90
2763;DHT22;1389;51.490;7.338;2023-02-21T03:03:45;8.80;98.00
2763;DHT22;1389;51.490;7.338;2023-02-21T03:09:17;8.80;98.20
2763;DHT22;1389;51.490;7.338;2023-02-21T03:12:09;8.80;98.20
2763;DHT22;1389;51.490;7.338;2023-02-21T03:14:50;8.80;97.90
2763;DHT22;1389;51.490;7.338;2023-02-21T03:17:22;8.80;98.10
2763;DHT22;1389;51.490;7.338;2023-02-21T03:19:51;8.80;98.10
2763;DHT22;1389;51.490;7.338;2023-02-21T03:22:21;8.80;98.10
2763;DHT22;1389;51.490;7.338;2023-02-21T03:24:50;8.90;98.10
2763;DHT22;1389;51.490;7.338;2023-02-21T03:27:19;8.90;97.80
2763;DHT22;1389;51.490;7.338;2023-02-21T03:29:47;8.90;97.60
2763;DHT22;1389;51.490;7.338;2023-02-21T03:32:21;8.80;97.80
2763;DHT22;1389;51.490;7.338;2023-02-21T03:34:49;8.80;98.00
2763;DHT22;1389;51.490;7.338;2023-02-21T03:39:47;8.90;97.90
2763;DHT22;1389;51.490;7.338;2023-02-21T03:42:13;8.80;98.00
2763;DHT22;1389;51.490;7.338;2023-02-21T03:44:39;8.80;97.90
2763;DHT22;1389;51.490;7.338;2023-02-21T03:47:05;8.70;98.10
2763;DHT22;1389;51.490;7.338;2023-02-21T03:49:31;8.80;98.30
2763;DHT22;1389;51.490;7.338;2023-02-21T03:51:57;8.90;98.10
2763;DHT22;1389;51.490;7.338;2023-02-21T03:54:23;8.90;97.70
2763;DHT22;1389;51.490;7.338;2023-02-21T03:56:50;8.80;97.60
2763;DHT22;1389;51.490;7.338;2023-02-21T03:59:16;8.80;97.70
2763;DHT22;1389;51.490;7.338;2023-02-21T04:01:42;8.80;97.80
2763;DHT22;1389;51.490;7.338;2023-02-21T04:04:08;8.80;97.70
2763;DHT22;1389;51.490;7.338;2023-02-21T04:06:34;8.80;97.80
2763;DHT22;1389;51.490;7.338;2023-02-21T04:09:00;8.80;97.80
2763;DHT22;1389;51.490;7.338;2023-02-21T04:11:26;8.80;97.90
2763;DHT22;1389;51.490;7.338;2023-02-21T04:13:52;8.80;97.70
2763;DHT22;1389;51.490;7.338;2023-02-21T04:16:18;8.80;97.40
2763;DHT22;1389;51.490;7.338;2023-02-21T04:18:44;8.70;97.50
2763;DHT22;1389;51.490;7.338;2023-02-21T04:21:14;8.70;97.90
2763;DHT22;1389;51.490;7.338;2023-02-21T04:23:40;8.70;98.00
2763;DHT22;1389;51.490;7.338;2023-02-21T04:26:06;8.80;98.00
2763;DHT22;1389;51.490;7.338;2023-02-21T04:28:32;8.70;97.50
2763;DHT22;1389;51.490;7.338;2023-02-21T04:30:58;8.80;97.50
2763;DHT22;1389;51.490;7.338;2023-02-21T04:33:24;8.80;97.50
2763;DHT22;1389;51.490;7.338;2023-02-21T04:35:50;8.80;97.30
2763;DHT22;1389;51.490;7.338;2023-02-21T04:38:16;8.70;97.30
2763;DHT22;1389;51.490;7.338;2023-02-21T04:40:42;8.70;97.50
2763;DHT22;1389;51.490;7.338;2023-02-21T04:43:08;8.70;97.70
2763;DHT22;1389;51.490;7.338;2023-02-21T04:45:34;8.70;97.50
2763;DHT22;1389;51.490;7.338;2023-02-21T04:48:01;8.70;97.70
2763;DHT22;1389;51.490;7.338;2023-02-21T04:50:27;8.70;97.70
2763;DHT22;1389;51.490;7.338;2023-02-21T04:52:53;8.70;97.80
2763;DHT22;1389;51.490;7.338;2023-02-21T04:55:19;8.70;97.90
2763;DHT22;1389;51.490;7.338;2023-02-21T04:57:45;8.70;97.90
2763;DHT22;1389;51.490;7.338;2023-02-21T05:00:12;8.70;97.70
2763;DHT22;1389;51.490;7.338;2023-02-21T05:02:41;8.70;97.90
2763;DHT22;1389;51.490;7.338;2023-02-21T05:05:08;8.70;98.20
2763;DHT22;1389;51.490;7.338;2023-02-21T05:07:34;8.60;97.90
2763;DHT22;1389;51.490;7.338;2023-02-21T05:10:00;8.60;98.10
2763;DHT22;1389;51.490;7.338;2023-02-21T05:12:26;8.60;98.30
2763;DHT22;1389;51.490;7.338;2023-02-21T05:14:52;8.60;98.30
2763;DHT22;1389;51.490;7.338;2023-02-21T05:17:18;8.70;98.30
2763;DHT22;1389;51.490;7.338;2023-02-21T05:19:45;8.70;98.30
2763;DHT22;1389;51.490;7.338;2023-02-21T05:22:12;8.70;98.30
2763;DHT22;1389;51.490;7.338;2023-02-21T05:24:40;8.70;98.50
2763;DHT22;1389;51.490;7.338;2023-02-21T05:27:09;8.70;98.50
2763;DHT22;1389;51.490;7.338;2023-02-21T05:29:36;8.70;98.40
2763;DHT22;1389;51.490;7.338;2023-02-21T05:32:02;8.80;98.30
2763;DHT22;1389;51.490;7.338;2023-02-21T05:34:29;8.70;98.00
2763;DHT22;1389;51.490;7.338;2023-02-21T05:36:55;8.70;98.00
2763;DHT22;1389;51.490;7.338;2023-02-21T05:39:21;8.70;98.10
2763;DHT22;1389;51.490;7.338;2023-02-21T05:41:50;8.70;98.30
2763;DHT22;1389;51.490;7.338;2023-02-21T05:44:17;8.70;98.40
2763;DHT22;1389;51.490;7.338;2023-02-21T05:46:43;8.80;98.40
2763;DHT22;1389;51.490;7.338;2023-02-21T05:49:11;8.80;98.40
2763;DHT22;1389;51.490;7.338;2023-02-21T05:51:40;8.80;98.20
2763;DHT22;1389;51.490;7.338;2023-02-21T05:54:07;8.80;98.10
2763;DHT22;1389;51.490;7.338;2023-02-21T05:56:41;8.80;98.00
2763;DHT22;1389;51.490;7.338;2023-02-21T05:59:08;8.70;98.10
2763;DHT22;1389;51.490;7.338;2023-02-21T06:01:34;8.80;98.20
2763;DHT22;1389;51.490;7.338;2023-02-21T06:04:00;8.80;98.30
2763;DHT22;1389;51.490;7.338;2023-02-21T06:06:26;8.80;98.00
2763;DHT22;1389;51.490;7.338;2023-02-21T06:08:52;8.80;97.90
2763;DHT22;1389;51.490;7.338;2023-02-21T06:11:24;8.80;98.00
2763;DHT22;1389;51.490;7.338;2023-02-21T06:13:51;8.80;97.90
2763;DHT22;1389;51.490;7.338;2023-02-21T06:16:17;8.80;97.80
2763;DHT22;1389;51.490;7.338;2023-02-21T06:18:43;8.70;97.80
2763;DHT22;1389;51.490;7.338;2023-02-21T06:21:09;8.70;97.90
2763;DHT22;1389;51.490;7.338;2023-02-21T06:23:35;8.70;98.00
2763;DHT22;1389;51.490;7.338;2023-02-21T06:26:01;8.70;97.90
2763;DHT22;1389;51.490;7.338;2023-02-21T06:28:29;8.70;98.10
2763;DHT22;1389;51.490;7.338;2023-02-21T06:30:55;8.70;98.10
2763;DHT22;1389;51.490;7.338;2023-02-21T06:33:22;8.80;98.10
2763;DHT22;1389;51.490;7.338;2023-02-21T06:35:48;8.80;97.90
2763;DHT22;1389;51.490;7.338;2023-02-21T06:38:15;8.80;97.90
2763;DHT22;1389;51.490;7.338;2023-02-21T06:40:41;8.80;97.80
2763;DHT22;1389;51.490;7.338;2023-02-21T06:43:07;8.90;97.70
2763;DHT22;1389;51.490;7.338;2023-02-21T06:45:33;8.90;97.50
2763;DHT22;1389;51.490;7.338;2023-02-21T06:47:59;8.80;97.80
2763;DHT22;1389;51.490;7.338;2023-02-21T06:50:25;8.80;98.00
2763;DHT22;1389;51.490;7.338;2023-02-21T06:52:52;8.80;97.90
2763;DHT22;1389;51.490;7.338;2023-02-21T06:55:20;8.80;97.90
2763;DHT22;1389;51.490;7.338;2023-02-21T06:57:46;8.90;97.90
2763;DHT22;1389;51.490;7.338;2023-02-21T07:00:13;8.90;97.90
2763;DHT22;1389;51.490;7.338;2023-02-21T07:02:39;8.90;98.00
2763;DHT22;1389;51.490;7.338;2023-02-21T07:05:05;8.90;97.80
2763;DHT22;1389;51.490;7.338;2023-02-21T07:07:32;8.90;97.90
2763;DHT22;1389;51.490;7.338;2023-02-21T07:09:58;8.80;97.90
2763;DHT22;1389;51.490;7.338;2023-02-21T07:12:25;8.80;98.10
2763;DHT22;1389;51.490;7.338;2023-02-21T07:14:53;8.80;98.00
2763;DHT22;1389;51.490;7.338;2023-02-21T07:17:19;8.80;98.10
2763;DHT22;1389;51.490;7.338;2023-02-21T07:19:45;8.90;98.00
2763;DHT22;1389;51.490;7.338;2023-02-21T07:22:12;8.90;98.00
2763;DHT22;1389;51.490;7.338;2023-02-21T07:24:38;8.90;97.90
2763;DHT22;1389;51.490;7.338;2023-02-21T07:27:04;8.90;97.80
2763;DHT22;1389;51.490;7.338;2023-02-21T07:29:30;8.90;97.80
2763;DHT22;1389;51.490;7.338;2023-02-21T07:31:56;8.90;97.70
2763;DHT22;1389;51.490;7.338;2023-02-21T07:34:22;8.90;97.80
2763;DHT22;1389;51.490;7.338;2023-02-21T07:36:49;8.90;97.80
2763;DHT22;1389;51.490;7.338;2023-02-21T07:39:15;8.90;97.70
2763;DHT22;1389;51.490;7.338;2023-02-21T07:41:41;8.90;97.80
2763;DHT22;1389;51.490;7.338;2023-02-21T07:44:07;8.90;97.70
2763;DHT22;1389;51.490;7.338;2023-02-21T07:46:34;8.90;97.70
2763;DHT22;1389;51.490;7.338;2023-02-21T07:49:00;8.90;97.60
2763;DHT22;1389;51.490;7.338;2023-02-21T07:51:28;8.90;97.80
2763;DHT22;1389;51.490;7.338;2023-02-21T07:53:54;8.90;97.50
2763;DHT22;1389;51.490;7.338;2023-02-21T07:56:21;8.90;97.30
2763;DHT22;1389;51.490;7.338;2023-02-21T07:58:47;8.90;97.30
2763;DHT22;1389;51.490;7.338;2023-02-21T08:01:13;8.90;97.40
2763;DHT22;1389;51.490;7.338;2023-02-21T08:03:39;8.80;97.50
2763;DHT22;1389;51.490;7.338;2023-02-21T08:06:08;8.90;97.50
2763;DHT22;1389;51.490;7.338;2023-02-21T08:08:35;8.90;97.70
2763;DHT22;1389;51.490;7.338;2023-02-21T08:11:01;8.90;97.40
2763;DHT22;1389;51.490;7.338;2023-02-21T08:13:27;8.80;97.40
2763;DHT22;1389;51.490;7.338;2023-02-21T08:15:53;8.80;97.60
2763;DHT22;1389;51.490;7.338;2023-02-21T08:18:21;8.80;97.60
2763;DHT22;1389;51.490;7.338;2023-02-21T08:20:50;8.90;97.70
2763;DHT22;1389;51.490;7.338;2023-02-21T08:23:17;8.90;97.70
2763;DHT22;1389;51.490;7.338;2023-02-21T08:25:44;8.80;97.40
2763;DHT22;1389;51.490;7.338;2023-02-21T08:28:11;8.80;97.80
2763;DHT22;1389;51.490;7.338;2023-02-21T08:30:37;8.80;97.50
2763;DHT22;1389;51.490;7.338;2023-02-21T08:33:03;8.70;97.30
2763;DHT22;1389;51.490;7.338;2023-02-21T08:35:30;8.60;97.90
2763;DHT22;1389;51.490;7.338;2023-02-21T08:37:56;8.70;98.10
2763;DHT22;1389;51.490;7.338;2023-02-21T08:40:31;8.70;98.30
2763;DHT22;1389;51.490;7.338;2023-02-21T08:42:58;8.70;98.40
2763;DHT22;1389;51.490;7.338;2023-02-21T08:45:26;8.70;98.30
2763;DHT22;1389;51.490;7.338;2023-02-21T08:47:53;8.70;98.00
2763;DHT22;1389;51.490;7.338;2023-02-21T08:50:20;8.70;98.00
2763;DHT22;1389;51.490;7.338;2023-02-21T08:52:48;8.70;98.10
2763;DHT22;1389;51.490;7.338;2023-02-21T08:55:15;8.70;98.30
2763;DHT22;1389;51.490;7.338;2023-02-21T08:57:41;8.70;98.50
2763;DHT22;1389;51.490;7.338;2023-02-21T09:00:08;8.80;98.30
2763;DHT22;1389;51.490;7.338;2023-02-21T09:02:37;8.80;98.20
2763;DHT22;1389;51.490;7.338;2023-02-21T09:05:16;8.70;98.20
2763;DHT22;1389;51.490;7.338;2023-02-21T09:07:46;8.80;98.10
2763;DHT22;1389;51.490;7.338;2023-02-21T09:10:13;8.80;97.90
2763;DHT22;1389;51.490;7.338;2023-02-21T09:12:39;8.80;98.20
2763;DHT22;1389;51.490;7.338;2023-02-21T09:15:06;8.80;98.10
2763;DHT22;1389;51.490;7.338;2023-02-21T09:17:32;8.80;98.20
2763;DHT22;1389;51.490;7.338;2023-02-21T09:20:07;8.80;98.10
2763;DHT22;1389;51.490;7.338;2023-02-21T09:22:34;8.80;98.00
2763;DHT22;1389;51.490;7.338;2023-02-21T09:25:00;8.80;98.10
2763;DHT22;1389;51.490;7.338;2023-02-21T09:27:26;8.80;98.20
2763;DHT22;1389;51.490;7.338;2023-02-21T09:30:06;8.80;98.00
2763;DHT22;1389;51.490;7.338;2023-02-21T09:32:33;8.80;97.90
2763;DHT22;1389;51.490;7.338;2023-02-21T09:35:00;8.70;98.10
2763;DHT22;1389;51.490;7.338;2023-02-21T09:37:26;8.70;98.40
2763;DHT22;1389;51.490;7.338;2023-02-21T09:39:52;8.60;98.50
2763;DHT22;1389;51.490;7.338;2023-02-21T09:42:21;8.60;98.60
2763;DHT22;1389;51.490;7.338;2023-02-21T09:44:49;8.60;98.70
2763;DHT22;1389;51.490;7.338;2023-02-21T09:47:42;8.60;98.90
2763;DHT22;1389;51.490;7.338;2023-02-21T09:50:15;8.70;98.90
2763;DHT22;1389;51.490;7.338;2023-02-21T09:52:41;8.70;98.90
2763;DHT22;1389;51.490;7.338;2023-02-21T09:57:52;8.80;98.90
2763;DHT22;1389;51.490;7.338;2023-02-21T10:00:21;8.80;98.40
2763;DHT22;1389;51.490;7.338;2023-02-21T10:05:46;8.70;98.60
2763;DHT22;1389;51.490;7.338;2023-02-21T10:11:25;8.70;98.90
2763;DHT22;1389;51.490;7.338;2023-02-21T10:19:36;8.80;98.50
2763;DHT22;1389;51.490;7.338;2023-02-21T10:22:24;8.80;98.40
2763;DHT22;1389;51.490;7.338;2023-02-21T10:24:51;8.70;98.50
2763;DHT22;1389;51.490;7.338;2023-02-21T10:27:23;8.60;98.50
2763;DHT22;1389;51.490;7.338;2023-02-21T10:30:06;8.60;98.60
2763;DHT22;1389;51.490;7.338;2023-02-21T10:32:36;8.60;98.70
2763;DHT22;1389;51.490;7.338;2023-02-21T10:35:03;8.70;98.90
2763;DHT22;1389;51.490;7.338;2023-02-21T10:37:52;8.70;99.00
2763;DHT22;1389;51.490;7.338;2023-02-21T10:40:38;8.80;99.20
2763;DHT22;1389;51.490;7.338;2023-02-21T10:43:31;8.80;98.90
2763;DHT22;1389;51.490;7.338;2023-02-21T10:48:41;8.90;99.00
2763;DHT22;1389;51.490;7.338;2023-02-21T10:51:09;8.90;98.60
2763;DHT22;1389;51.490;7.338;2023-02-21T10:53:46;8.90;98.70
2763;DHT22;1389;51.490;7.338;2023-02-21T10:59:00;8.90;98.60
2763;DHT22;1389;51.490;7.338;2023-02-21T11:03:59;9.00;99.00
2763;DHT22;1389;51.490;7.338;2023-02-21T11:06:37;9.00;98.90
2763;DHT22;1389;51.490;7.338;2023-02-21T11:12:00;9.00;98.30
2763;DHT22;1389;51.490;7.338;2023-02-21T11:14:28;9.00;98.20
2763;DHT22;1389;51.490;7.338;2023-02-21T11:17:11;9.00;98.40
2763;DHT22;1389;51.490;7.338;2023-02-21T11:22:18;9.10;98.60
2763;DHT22;1389;51.490;7.338;2023-02-21T11:27:18;9.20;98.60
2763;DHT22;1389;51.490;7.338;2023-02-21T11:29:47;9.20;98.30
2763;DHT22;1389;51.490;7.338;2023-02-21T11:35:29;9.20;98.20
2763;DHT22;1389;51.490;7.338;2023-02-21T11:38:01;9.20;98.40
2763;DHT22;1389;51.490;7.338;2023-02-21T11:40:29;9.20;98.40
2763;DHT22;1389;51.490;7.338;2023-02-21T11:54:03;9.20;98.40
2763;DHT22;1389;51.490;7.338;2023-02-21T11:56:53;9.30;98.70
2763;DHT22;1389;51.490;7.338;2023-02-21T12:04:46;9.40;97.90
2763;DHT22;1389;51.490;7.338;2023-02-21T12:10:03;9.50;98.10
2763;DHT22;1389;51.490;7.338;2023-02-21T12:15:33;9.60;97.60
2763;DHT22;1389;51.490;7.338;2023-02-21T12:18:30;9.70;97.30
2763;DHT22;1389;51.490;7.338;2023-02-21T12:21:12;9.80;97.00
2763;DHT22;1389;51.490;7.338;2023-02-21T12:23:51;9.80;97.00
2763;DHT22;1389;51.490;7.338;2023-02-21T12:27:05;9.90;97.00
2763;DHT22;1389;51.490;7.338;2023-02-21T12:30:00;9.90;96.70
2763;DHT22;1389;51.490;7.338;2023-02-21T12:44:11;9.90;95.30
2763;DHT22;1389;51.490;7.338;2023-02-21T12:46:48;9.90;94.80
2763;DHT22;1389;51.490;7.338;2023-02-21T12:49:24;9.90;95.20
2763;DHT22;1389;51.490;7.338;2023-02-21T12:54:39;9.90;95.20
2763;DHT22;1389;51.490;7.338;2023-02-21T12:57:15;10.00;95.40
2763;DHT22;1389;51.490;7.338;2023-02-21T13:05:14;10.10;95.20
2763;DHT22;1389;51.490;7.338;2023-02-21T13:07:51;10.10;94.50
2763;DHT22;1389;51.490;7.338;2023-02-21T13:10:25;10.10;94.50
2763;DHT22;1389;51.490;7.338;2023-02-21T13:15:29;10.10;94.60
2763;DHT22;1389;51.490;7.338;2023-02-21T13:18:15;10.10;94.70
2763;DHT22;1389;51.490;7.338;2023-02-21T13:21:03;10.10;94.30
2763;DHT22;1389;51.490;7.338;2023-02-21T13:29:41;10.00;94.10
2763;DHT22;1389;51.490;7.338;2023-02-21T13:32:12;10.00;94.60
2763;DHT22;1389;51.490;7.338;2023-02-21T13:35:00;10.10;94.80
2763;DHT22;1389;51.490;7.338;2023-02-21T13:37:30;10.10;94.20
2763;DHT22;1389;51.490;7.338;2023-02-21T13:40:04;10.10;93.90
2763;DHT22;1389;51.490;7.338;2023-02-21T13:42:37;10.10;93.90
2763;DHT22;1389;51.490;7.338;2023-02-21T13:45:21;10.10;94.10
2763;DHT22;1389;51.490;7.338;2023-02-21T13:55:34;10.00;94.10
2763;DHT22;1389;51.490;7.338;2023-02-21T14:05:24;10.00;94.40
2763;DHT22;1389;51.490;7.338;2023-02-21T14:08:02;10.00;94.60
2763;DHT22;1389;51.490;7.338;2023-02-21T14:10:40;10.00;94.70
2763;DHT22;1389;51.490;7.338;2023-02-21T14:13:40;10.00;94.70
2763;DHT22;1389;51.490;7.338;2023-02-21T14:21:41;10.00;94.60
2763;DHT22;1389;51.490;7.338;2023-02-21T14:24:33;10.00;94.70
2763;DHT22;1389;51.490;7.338;2023-02-21T14:29:40;9.90;94.80
2763;DHT22;1389;51.490;7.338;2023-02-21T14:37:40;9.90;95.10
2763;DHT22;1389;51.490;7.338;2023-02-21T14:52:12;9.80;94.70
2763;DHT22;1389;51.490;7.338;2023-02-21T15:02:53;9.70;95.30
2763;DHT22;1389;51.490;7.338;2023-02-21T15:05:26;9.80;95.50
2763;DHT22;1389;51.490;7.338;2023-02-21T15:08:21;9.80;95.30
2763;DHT22;1389;51.490;7.338;2023-02-21T15:10:50;9.70;95.40
2763;DHT22;1389;51.490;7.338;2023-02-21T15:13:22;9.80;95.50
2763;DHT22;1389;51.490;7.338;2023-02-21T15:16:04;9.80;95.40
2763;DHT22;1389;51.490;7.338;2023-02-21T15:18:33;9.80;95.50
2763;DHT22;1389;51.490;7.338;2023-02-21T15:21:15;9.80;95.60
2763;DHT22;1389;51.490;7.338;2023-02-21T15:23:45;9.80;95.40
2763;DHT22;1389;51.490;7.338;2023-02-21T15:26:26;9.80;95.60
2763;DHT22;1389;51.490;7.338;2023-02-21T15:31:34;9.80;95.50
2763;DHT22;1389;51.490;7.338;2023-02-21T15:34:01;9.70;95.50
2763;DHT22;1389;51.490;7.338;2023-02-21T15:36:28;9.70;95.60
2763;DHT22;1389;51.490;7.338;2023-02-21T15:39:06;9.70;95.70
2763;DHT22;1389;51.490;7.338;2023-02-21T15:41:47;9.70;95.80
2763;DHT22;1389;51.490;7.338;2023-02-21T15:44:32;9.70;95.90
2763;DHT22;1389;51.490;7.338;2023-02-21T15:47:03;9.70;96.00
2763;DHT22;1389;51.490;7.338;2023-02-21T15:49:44;9.70;96.00
2763;DHT22;1389;51.490;7.338;2023-02-21T15:52:41;9.80;95.90
2763;DHT22;1389;51.490;7.338;2023-02-21T15:58:31;9.80;95.80
2763;DHT22;1389;51.490;7.338;2023-02-21T16:00:41;9.80;95.90
2763;DHT22;1389;51.490;7.338;2023-02-21T16:03:47;9.80;95.90
2763;DHT22;1389;51.490;7.338;2023-02-21T16:06:28;9.80;95.80
2763;DHT22;1389;51.490;7.338;2023-02-21T16:08:57;9.80;95.80
2763;DHT22;1389;51.490;7.338;2023-02-21T16:11:26;9.80;95.70
2763;DHT22;1389;51.490;7.338;2023-02-21T16:14:02;9.80;95.80
2763;DHT22;1389;51.490;7.338;2023-02-21T16:16:34;9.80;95.90
2763;DHT22;1389;51.490;7.338;2023-02-21T16:19:01;9.80;95.90
2763;DHT22;1389;51.490;7.338;2023-02-21T16:21:28;9.80;95.80
2763;DHT22;1389;51.490;7.338;2023-02-21T16:23:54;9.80;95.70
2763;DHT22;1389;51.490;7.338;2023-02-21T16:26:23;9.70;95.70
2763;DHT22;1389;51.490;7.338;2023-02-21T16:28:54;9.70;95.80
2763;DHT22;1389;51.490;7.338;2023-02-21T16:31:26;9.70;95.90
2763;DHT22;1389;51.490;7.338;2023-02-21T16:33:52;9.70;96.00
2763;DHT22;1389;51.490;7.338;2023-02-21T16:36:32;9.70;95.90
2763;DHT22;1389;51.490;7.338;2023-02-21T16:38:59;9.70;96.00
2763;DHT22;1389;51.490;7.338;2023-02-21T16:41:25;9.80;96.10
2763;DHT22;1389;51.490;7.338;2023-02-21T16:43:52;9.80;96.10
2763;DHT22;1389;51.490;7.338;2023-02-21T16:46:25;9.80;96.00
2763;DHT22;1389;51.490;7.338;2023-02-21T16:48:53;9.80;95.90
2763;DHT22;1389;51.490;7.338;2023-02-21T16:51:20;9.80;96.00
2763;DHT22;1389;51.490;7.338;2023-02-21T16:53:46;9.80;96.00
2763;DHT22;1389;51.490;7.338;2023-02-21T16:56:13;9.80;96.00
2763;DHT22;1389;51.490;7.338;2023-02-21T16:58:47;9.80;96.10
2763;DHT22;1389;51.490;7.338;2023-02-21T17:01:22;9.80;96.10
2763;DHT22;1389;51.490;7.338;2023-02-21T17:03:49;9.80;96.10
2763;DHT22;1389;51.490;7.338;2023-02-21T17:06:19;9.80;96.00
2763;DHT22;1389;51.490;7.338;2023-02-21T17:08:46;9.80;96.00
2763;DHT22;1389;51.490;7.338;2023-02-21T17:11:12;9.80;96.00
2763;DHT22;1389;51.490;7.338;2023-02-21T17:13:38;9.80;95.90
2763;DHT22;1389;51.490;7.338;2023-02-21T17:16:04;9.80;95.80
2763;DHT22;1389;51.490;7.338;2023-02-21T17:18:31;9.70;95.90
2763;DHT22;1389;51.490;7.338;2023-02-21T17:20:58;9.70;96.10
2763;DHT22;1389;51.490;7.338;2023-02-21T17:23:24;9.70;96.20
2763;DHT22;1389;51.490;7.338;2023-02-21T17:25:50;9.70;96.20
2763;DHT22;1389;51.490;7.338;2023-02-21T17:28:17;9.70;96.20
2763;DHT22;1389;51.490;7.338;2023-02-21T17:30:43;9.70;96.20
2763;DHT22;1389;51.490;7.338;2023-02-21T17:33:09;9.70;96.20
2763;DHT22;1389;51.490;7.338;2023-02-21T17:35:36;9.70;96.20
2763;DHT22;1389;51.490;7.338;2023-02-21T17:38:03;9.70;96.20
2763;DHT22;1389;51.490;7.338;2023-02-21T17:40:29;9.70;96.20
2763;DHT22;1389;51.490;7.338;2023-02-21T17:42:55;9.70;96.20
2763;DHT22;1389;51.490;7.338;2023-02-21T17:45:22;9.70;96.20
2763;DHT22;1389;51.490;7.338;2023-02-21T17:47:49;9.70;96.20
2763;DHT22;1389;51.490;7.338;2023-02-21T17:50:17;9.70;96.10
2763;DHT22;1389;51.490;7.338;2023-02-21T17:52:43;9.70;96.00
2763;DHT22;1389;51.490;7.338;2023-02-21T17:55:15;9.70;96.00
2763;DHT22;1389;51.490;7.338;2023-02-21T17:57:41;9.60;96.20
2763;DHT22;1389;51.490;7.338;2023-02-21T18:00:14;9.60;96.30
2763;DHT22;1389;51.490;7.338;2023-02-21T18:02:41;9.60;96.40
2763;DHT22;1389;51.490;7.338;2023-02-21T18:05:07;9.60;96.40
2763;DHT22;1389;51.490;7.338;2023-02-21T18:07:33;9.60;96.20
2763;DHT22;1389;51.490;7.338;2023-02-21T18:10:01;9.70;96.20
2763;DHT22;1389;51.490;7.338;2023-02-21T18:12:29;9.60;96.20
2763;DHT22;1389;51.490;7.338;2023-02-21T18:14:55;9.60;96.30
2763;DHT22;1389;51.490;7.338;2023-02-21T18:17:21;9.60;96.30
2763;DHT22;1389;51.490;7.338;2023-02-21T18:19:47;9.60;96.40
2763;DHT22;1389;51.490;7.338;2023-02-21T18:22:13;9.60;96.40
2763;DHT22;1389;51.490;7.338;2023-02-21T18:24:39;9.60;96.30
2763;DHT22;1389;51.490;7.338;2023-02-21T18:27:06;9.60;96.50
2763;DHT22;1389;51.490;7.338;2023-02-21T18:29:32;9.60;96.50
2763;DHT22;1389;51.490;7.338;2023-02-21T18:31:58;9.60;96.50
2763;DHT22;1389;51.490;7.338;2023-02-21T18:34:24;9.60;96.50
2763;DHT22;1389;51.490;7.338;2023-02-21T18:36:52;9.60;96.50
2763;DHT22;1389;51.490;7.338;2023-02-21T18:39:20;9.50;96.50
2763;DHT22;1389;51.490;7.338;2023-02-21T18:41:46;9.60;96.50
2763;DHT22;1389;51.490;7.338;2023-02-21T18:44:13;9.50;96.70
2763;DHT22;1389;51.490;7.338;2023-02-21T18:46:39;9.50;96.20
2763;DHT22;1389;51.490;7.338;2023-02-21T18:49:10;9.50;96.40
2763;DHT22;1389;51.490;7.338;2023-02-21T18:51:38;9.50;96.60
2763;DHT22;1389;51.490;7.338;2023-02-21T18:54:04;9.40;96.90
2763;DHT22;1389;51.490;7.338;2023-02-21T18:56:30;9.40;96.70
2763;DHT22;1389;51.490;7.338;2023-02-21T18:58:56;9.40;96.80
2763;DHT22;1389;51.490;7.338;2023-02-21T19:01:23;9.40;96.90
2763;DHT22;1389;51.490;7.338;2023-02-21T19:03:52;9.40;97.00
2763;DHT22;1389;51.490;7.338;2023-02-21T19:06:20;9.40;96.90
2763;DHT22;1389;51.490;7.338;2023-02-21T19:08:47;9.40;96.90
2763;DHT22;1389;51.490;7.338;2023-02-21T19:11:16;9.40;97.00
2763;DHT22;1389;51.490;7.338;2023-02-21T19:13:42;9.40;97.00
2763;DHT22;1389;51.490;7.338;2023-02-21T19:16:16;9.40;97.00
2763;DHT22;1389;51.490;7.338;2023-02-21T19:18:42;9.40;97.00
2763;DHT22;1389;51.490;7.338;2023-02-21T19:21:08;9.40;97.00
2763;DHT22;1389;51.490;7.338;2023-02-21T19:23:38;9.40;96.90
2763;DHT22;1389;51.490;7.338;2023-02-21T19:26:05;9.30;96.80
2763;DHT22;1389;51.490;7.338;2023-02-21T19:28:31;9.30;97.00
2763;DHT22;1389;51.490;7.338;2023-02-21T19:30:58;9.30;97.10
2763;DHT22;1389;51.490;7.338;2023-02-21T19:33:24;9.30;97.10
2763;DHT22;1389;51.490;7.338;2023-02-21T19:35:50;9.30;97.00